Ponce De Leon, Missouri
Current Conditions -  °F | °C
As of 8:15 PM on Sunday 25 Jan 2015 (Local Time) from KFWB Reporting Station
Overcast Overcast  
Wind Chill: 28°   Ceiling: 1300
Heat Index: 37°   Visibility: 10mi
Dew Point: 32°   Wind: 17mph
Humidity: 81%   Direction: 330°NNW
Pressure: 30.03"   Gusts: 23mph
Location:  36.88°N, 93.35°W
Report Text: KFWB 260215Z AUTO 33015G20KT 10SM OVC013 03/00 A3003 RMK AO2
Loading
Personal Weather Stations






























Interactive Weather Map New forecast layout! Learn more

10-Day Weather Forecast

Advertisements
Track Severe Weather on mobile